Have a Safe July 4th! 

Flight Track Log - Related Links

Times and Time Zones

All times are in EST time to prevent confusion due to time zone crossing. See the N217TM flight status page for this flight to view local times or setup timezone preferences in your user account.

Time Position Orientation Groundspeed Altitude Reporting Facility
EST Latitude Longitude Course Direction KTS MPH feet Rate Location/Type
Wed 12:01:42 PM 35.3975 -97.5872 138° Southeast 104 120 1,800  Level Fort Worth Center
Wed 12:02:24 PM 35.4181 -97.5811 14° North 113 130 3,200 1,780 Climbing Fort Worth Center
Wed 12:03:13 PM 35.4311 -97.5572 56° Northeast 116 133 4,500 1,574 Climbing Fort Worth Center
Wed 12:03:25 PM 35.4289 -97.5483 107° East 123 142 4,800 1,645 Climbing Fort Worth Center
Wed 12:04:15 PM 35.4303 -97.5150 87° East 120 138 6,200 1,770 Climbing Fort Worth Center
Wed 12:04:26 PM 35.4303 -97.5044 90° East 129 148 6,600 1,714 Climbing Fort Worth Center
Wed 12:05:18 PM 35.4303 -97.4700 90° East 127 146 8,000 1,800 Climbing Fort Worth Center
Wed 12:05:26 PM 35.4269 -97.4586 110° East 142 163 8,400 1,645 Climbing Fort Worth Center
Wed 12:06:20 PM 35.4050 -97.4286 132° Southeast 150 173 9,700 1,603 Climbing Fort Worth Center
Wed 12:07:00 PM 35.0305 -97.4498 138° Southeast  Level Estimated
Wed 12:07:22 PM 35.3539 -97.4000 155° Southeast 172 198 11,500  Level Fort Worth Center
Wed 12:08:24 PM 35.3092 -97.3733 154° Southeast 180 207 13,000 1,403 Climbing Fort Worth Center
Wed 12:09:26 PM 35.2639 -97.3442 152° Southeast 184 212 14,400 1,258 Climbing Fort Worth Center
Wed 12:10:28 PM 35.2139 -97.3086 150° Southeast 203 234 15,600 1,403 Climbing Fort Worth Center
Wed 12:11:30 PM 35.1525 -97.2642 149° Southeast 215 247 17,300 1,113 Climbing Fort Worth Center
Wed 12:12:32 PM 35.1003 -97.2283 151° Southeast 215 247 17,900 823 Climbing Fort Worth Center
Wed 12:13:34 PM 35.0472 -97.1892 149° Southeast 222 255 19,000 581 Climbing Fort Worth Center
Wed 12:14:36 PM 34.9883 -97.1456 149° Southeast 244 281 19,100 48 Climbing Fort Worth Center
Wed 12:15:39 PM 34.9219 -97.0997 150° Southeast 271 312 19,100 -96 Level Fort Worth Center
Wed 12:16:41 PM 34.8553 -97.0481 148° Southeast 281 323 18,900 -48 Descending Fort Worth Center
Wed 12:17:43 PM 34.7825 -96.9661 137° Southeast 294 338 19,000 48 Climbing Fort Worth Center
Wed 12:18:45 PM 34.7217 -96.8986 138° Southeast 298 343 19,000  Level Fort Worth Center
Wed 12:19:47 PM 34.6525 -96.8569 154° Southeast 280 322 19,000  Level Fort Worth Center
Wed 12:20:49 PM 34.5814 -96.8311 163° South 269 310 19,000  Level Fort Worth Center
Wed 12:21:51 PM 34.5106 -96.8033 162° South 267 307 19,000  Level Fort Worth Center
Wed 12:22:53 PM 34.4256 -96.7717 163° South 267 307 19,000  Level Fort Worth Center
Wed 12:23:55 PM 34.3539 -96.7422 161° South 270 311 19,000  Level Fort Worth Center
Wed 12:24:57 PM 34.2819 -96.7156 163° South 271 312 19,000  Level Fort Worth Center
Wed 12:26:00 PM 34.2092 -96.6878 162° South 274 315 19,000  Level Fort Worth Center
Wed 12:27:02 PM 34.1369 -96.6603 163° South 274 315 19,000  Level Fort Worth Center
Wed 12:28:04 PM 34.0544 -96.6292 163° South 274 315 19,000  Level Fort Worth Center
Wed 12:29:06 PM 33.9814 -96.6019 163° South 275 316 19,000  Level Fort Worth Center
Wed 12:30:08 PM 33.9092 -96.5744 162° South 272 313 19,000 -48 Level Fort Worth Center
Wed 12:31:10 PM 33.8372 -96.5469 162° South 272 313 18,900 -1,016 Descending Fort Worth Center
Wed 12:32:12 PM 33.7514 -96.5158 163° South 275 316 16,900 -2,129 Descending Fort Worth Center
Wed 12:33:14 PM 33.6778 -96.4872 162° South 279 321 14,500 -2,419 Descending Fort Worth Center
Wed 12:34:16 PM 33.6022 -96.4589 163° South 265 305 11,900 -2,016 Descending Fort Worth Center
Wed 12:35:19 PM 33.5339 -96.4342 163° South 258 297 10,300 -1,488 Descending Fort Worth Center
Wed 12:36:21 PM 33.4667 -96.4094 163° South 254 292 8,800 -1,258 Descending Fort Worth Center
Wed 12:37:23 PM 33.3981 -96.3842 163° South 239 275 7,700 -871 Descending Fort Worth Center
Wed 12:38:25 PM 33.3361 -96.3694 169° South 229 264 7,000 -677 Descending Fort Worth Center
Wed 12:39:27 PM 33.2681 -96.3728 182° South 225 259 6,300 -692 Descending Fort Worth Center
Wed 12:40:09 PM 33.2333 -96.3833 194° South 222 255 5,800 -824 Descending Dallas / Fort Worth TRACON
Wed 12:41:09 PM 33.1667 -96.3833 180° South 223 257 4,900 -1,190 Descending Dallas / Fort Worth TRACON
Wed 12:42:15 PM 33.1000 -96.4000 192° South 237 273 3,300 -1,238 Descending Dallas / Fort Worth TRACON
Wed 12:43:15 PM 33.0333 -96.4167 192° South 205 236 2,300 -676 Descending Dallas / Fort Worth TRACON
Wed 12:44:37 PM 32.9578 -96.4311 189° South 205 236 1,700 -207 Descending Fort Worth Center
Wed 12:45:40 PM 32.9006 -96.4483 194° South 212 244 1,800 48 Climbing Fort Worth Center
Wed 12:46:42 PM 32.8539 -96.4825 212° Southwest 181 208 1,800 -97 Level Fort Worth Center
Wed 12:47:44 PM 32.8267 -96.5189 228° Southwest 148 170 1,600 -145 Descending Fort Worth Center
Wed 12:48:46 PM 32.7975 -96.5300 198° South 104 120 1,500 -242 Descending Fort Worth Center
Wed 12:49:48 PM 32.7747 -96.5294 179° South 84 97 1,100 -484 Descending Fort Worth Center
Wed 12:50:50 PM 32.7539 -96.5306 183° South 84 97 500 -581 Descending Fort Worth Center

Login

Don't have an account? Register now (free) for customized features, flight alerts, and more!